createdAt,value
2023-06-22T00:01:36.273Z,98112.64
2023-06-22T00:04:04.770Z,98118.45
2023-06-22T00:06:33.379Z,98120.34
2023-06-22T00:09:01.431Z,98123.80
2023-06-22T00:11:30.185Z,98122.55
2023-06-22T00:13:58.227Z,98120.10
2023-06-22T00:16:26.752Z,98110.21
2023-06-22T00:18:54.809Z,98107.44
2023-06-22T00:21:22.855Z,98110.02
2023-06-22T00:23:50.918Z,98111.55
2023-06-22T00:26:19.352Z,98114.19
2023-06-22T00:28:47.676Z,98114.57
2023-06-22T00:31:15.903Z,98124.14
2023-06-22T00:33:43.951Z,98130.33
2023-06-22T00:36:14.585Z,98136.25
2023-06-22T00:38:42.957Z,98147.15
2023-06-22T00:41:10.981Z,98149.90
2023-06-22T00:43:39.005Z,98143.77
2023-06-22T00:46:07.131Z,98140.39
2023-06-22T00:48:37.835Z,98140.23
2023-06-22T00:51:06.390Z,98136.41
2023-06-22T00:53:36.383Z,98126.13
2023-06-22T00:56:06.867Z,98114.41
2023-06-22T00:58:38.242Z,98101.14
2023-06-22T01:01:06.561Z,98095.64
2023-06-22T01:03:35.066Z,98096.64
2023-06-22T01:06:12.565Z,98105.00
2023-06-22T01:08:50.071Z,98120.15
2023-06-22T01:11:29.553Z,98128.23
2023-06-22T01:14:36.472Z,98125.13
2023-06-22T01:17:06.625Z,98116.77
2023-06-22T01:19:42.954Z,98119.08
2023-06-22T01:22:16.650Z,98126.02
2023-06-22T01:25:06.840Z,98130.23
2023-06-22T01:27:35.802Z,98137.47
2023-06-22T01:30:06.578Z,98137.71
2023-06-22T01:32:39.910Z,98132.60
2023-06-22T01:35:09.652Z,98135.02
2023-06-22T01:37:39.363Z,98132.23
2023-06-22T01:40:09.533Z,98126.16
2023-06-22T01:42:38.715Z,98124.75
2023-06-22T01:45:10.996Z,98121.85
2023-06-22T01:47:40.503Z,98116.83
2023-06-22T01:50:09.611Z,98111.53
2023-06-22T01:52:37.599Z,98109.42
2023-06-22T01:55:07.066Z,98110.06
2023-06-22T01:57:35.277Z,98107.75
2023-06-22T02:00:11.698Z,98093.71
2023-06-22T02:03:11.656Z,98080.89
2023-06-22T02:05:51.081Z,98071.98
2023-06-22T02:08:25.072Z,98066.61
2023-06-22T02:10:54.183Z,98052.02
2023-06-22T02:13:25.463Z,98043.66
2023-06-22T02:15:54.128Z,98040.05
2023-06-22T02:18:22.243Z,98030.28
2023-06-22T02:20:50.442Z,98025.45
2023-06-22T02:23:18.632Z,98026.59
2023-06-22T02:25:47.053Z,98031.33
2023-06-22T02:28:15.263Z,98035.64
2023-06-22T02:30:43.350Z,98037.72
2023-06-22T02:33:11.547Z,98043.30
2023-06-22T02:35:40.964Z,98049.77
2023-06-22T02:38:09.356Z,98058.41
2023-06-22T02:40:37.523Z,98065.01
2023-06-22T02:43:05.607Z,98063.25
2023-06-22T02:45:33.717Z,98065.52
2023-06-22T02:48:01.791Z,98072.39
2023-06-22T02:50:30.582Z,98076.83
2023-06-22T02:52:59.875Z,98073.95
2023-06-22T02:55:30.058Z,98076.45
2023-06-22T02:58:00.789Z,98076.15
2023-06-22T03:00:31.988Z,98074.14
2023-06-22T03:03:00.831Z,98075.84
2023-06-22T03:05:29.211Z,98078.36
2023-06-22T03:07:57.820Z,98080.25
2023-06-22T03:10:26.044Z,98077.98
2023-06-22T03:12:54.107Z,98078.92
2023-06-22T03:15:23.409Z,98084.48
2023-06-22T03:17:52.888Z,98090.95
2023-06-22T03:20:21.251Z,98092.36
2023-06-22T03:22:50.024Z,98096.44
2023-06-22T03:25:18.131Z,98093.67
2023-06-22T03:27:49.250Z,98091.80
2023-06-22T03:30:17.367Z,98095.80
2023-06-22T03:32:48.168Z,98094.55
2023-06-22T03:35:16.627Z,98087.41
2023-06-22T03:37:44.789Z,98088.66
2023-06-22T03:40:13.262Z,98091.29
2023-06-22T03:42:41.941Z,98094.16
2023-06-22T03:45:11.482Z,98092.45
2023-06-22T03:47:39.796Z,98099.69
2023-06-22T03:50:08.210Z,98103.09
2023-06-22T03:52:36.686Z,98101.66
2023-06-22T03:55:05.315Z,98101.50
2023-06-22T03:57:33.493Z,98106.10
2023-06-22T04:00:02.302Z,98107.40
2023-06-22T04:02:40.621Z,98111.33
2023-06-22T04:05:10.276Z,98106.64
2023-06-22T04:07:38.646Z,98104.95
2023-06-22T04:10:07.103Z,98109.33
2023-06-22T04:12:35.246Z,98109.52
2023-06-22T04:15:03.650Z,98114.90
2023-06-22T04:17:31.873Z,98115.09
2023-06-22T04:20:00.174Z,98110.58
2023-06-22T04:22:28.234Z,98109.54
2023-06-22T04:24:56.469Z,98108.27
2023-06-22T04:27:24.905Z,98106.75
2023-06-22T04:29:53.134Z,98101.52
2023-06-22T04:32:21.360Z,98102.88
2023-06-22T04:34:50.116Z,98109.77
2023-06-22T04:37:18.216Z,98111.78
2023-06-22T04:39:46.202Z,98115.62
2023-06-22T04:42:14.248Z,98118.10
2023-06-22T04:44:43.671Z,98110.67
2023-06-22T04:47:11.715Z,98109.91
2023-06-22T04:49:41.484Z,98110.10
2023-06-22T04:52:11.461Z,98108.83
2023-06-22T04:54:41.719Z,98111.52
2023-06-22T04:57:12.698Z,98115.07
2023-06-22T04:59:43.205Z,98113.35
2023-06-22T05:02:11.615Z,98109.38
2023-06-22T05:04:40.373Z,98107.23
2023-06-22T05:07:08.781Z,98106.05
2023-06-22T05:09:36.882Z,98112.99
2023-06-22T05:12:07.752Z,98114.33
2023-06-22T05:14:37.175Z,98107.61
2023-06-22T05:17:05.496Z,98108.51
2023-06-22T05:19:35.441Z,98108.36
2023-06-22T05:22:03.997Z,98109.06
2023-06-22T05:24:32.122Z,98107.81
2023-06-22T05:27:00.208Z,98111.00
2023-06-22T05:29:28.196Z,98111.05
2023-06-22T05:31:56.393Z,98109.60
2023-06-22T05:34:24.591Z,98102.58
2023-06-22T05:36:53.227Z,98099.42
2023-06-22T05:39:21.406Z,98096.38
2023-06-22T05:41:49.474Z,98093.48
2023-06-22T05:44:17.470Z,98093.80
2023-06-22T05:46:47.280Z,98093.88
2023-06-22T05:49:15.596Z,98090.89
2023-06-22T05:51:43.935Z,98089.19
2023-06-22T05:54:14.673Z,98093.02
2023-06-22T05:56:42.776Z,98092.16
2023-06-22T05:59:10.820Z,98090.42
2023-06-22T06:01:39.100Z,98088.02
2023-06-22T06:04:09.450Z,98089.05
2023-06-22T06:06:38.817Z,98088.88
2023-06-22T06:09:08.748Z,98090.04
2023-06-22T06:11:39.497Z,98090.90
2023-06-22T06:14:07.732Z,98090.55
2023-06-22T06:16:35.806Z,98087.61
2023-06-22T06:19:03.841Z,98091.06
2023-06-22T06:21:31.894Z,98097.52
2023-06-22T06:23:59.967Z,98095.17
2023-06-22T06:26:33.731Z,98092.48
2023-06-22T06:29:01.944Z,98092.98
2023-06-22T06:31:30.069Z,98094.25
2023-06-22T06:33:58.237Z,98097.29
2023-06-22T06:36:26.277Z,98098.05
2023-06-22T06:38:54.427Z,98099.30
2023-06-22T06:41:22.422Z,98096.95
2023-06-22T06:43:50.613Z,98099.20
2023-06-22T06:46:20.397Z,98099.12
2023-06-22T06:48:48.555Z,98106.91
2023-06-22T06:51:16.672Z,98108.75
2023-06-22T06:53:44.810Z,98106.42
2023-06-22T06:56:13.394Z,98106.07
2023-06-22T06:58:46.120Z,98109.70
2023-06-22T07:01:14.366Z,98109.02
2023-06-22T07:03:42.487Z,98108.66
2023-06-22T07:06:10.758Z,98108.38
2023-06-22T07:08:40.891Z,98108.89
2023-06-22T07:11:09.101Z,98105.54
2023-06-22T07:13:37.202Z,98107.08
2023-06-22T07:16:05.576Z,98108.95
2023-06-22T07:18:33.688Z,98106.85
2023-06-22T07:21:02.010Z,98107.77
2023-06-22T07:23:30.575Z,98110.52
2023-06-22T07:25:58.674Z,98112.86
2023-06-22T07:28:26.863Z,98117.48
2023-06-22T07:30:55.043Z,98118.00
2023-06-22T07:33:23.272Z,98114.89
2023-06-22T07:35:53.390Z,98114.16
2023-06-22T07:38:21.676Z,98112.23
2023-06-22T07:40:49.896Z,98110.52
2023-06-22T07:43:18.008Z,98113.66
2023-06-22T07:45:53.509Z,98111.88
2023-06-22T07:48:22.959Z,98109.05
2023-06-22T07:50:51.124Z,98112.09
2023-06-22T07:53:19.245Z,98109.11
2023-06-22T07:55:49.813Z,98111.19
2023-06-22T07:58:20.235Z,98111.33
2023-06-22T08:00:50.429Z,98115.02
2023-06-22T08:03:18.546Z,98112.42
2023-06-22T08:05:46.936Z,98114.82
2023-06-22T08:08:15.881Z,98119.54
2023-06-22T08:10:44.089Z,98122.79
2023-06-22T08:13:12.260Z,98125.61
2023-06-22T08:15:40.420Z,98125.45
2023-06-22T08:18:08.695Z,98124.23
2023-06-22T08:20:36.869Z,98124.31
2023-06-22T08:23:07.411Z,98130.45
2023-06-22T08:25:36.199Z,98131.73
2023-06-22T08:28:05.099Z,98131.34
2023-06-22T08:30:33.121Z,98127.92
2023-06-22T08:33:01.269Z,98125.29
2023-06-22T08:35:30.494Z,98132.38
2023-06-22T08:37:59.280Z,98136.68
2023-06-22T08:40:28.014Z,98134.16
2023-06-22T08:42:56.298Z,98132.85
2023-06-22T08:45:24.398Z,98132.98
2023-06-22T08:47:52.460Z,98133.35
2023-06-22T08:50:20.643Z,98132.85
2023-06-22T08:52:49.096Z,98136.92
2023-06-22T08:55:17.192Z,98146.93
2023-06-22T08:57:45.429Z,98149.96
2023-06-22T09:00:18.396Z,98144.70
2023-06-22T09:02:48.601Z,98135.54
2023-06-22T09:05:17.460Z,98130.92
2023-06-22T09:07:45.726Z,98129.27
2023-06-22T09:10:13.810Z,98125.91
2023-06-22T09:12:42.041Z,98120.09
2023-06-22T09:15:14.072Z,98118.52
2023-06-22T09:17:45.764Z,98121.12
2023-06-22T09:20:14.079Z,98120.61
2023-06-22T09:22:42.472Z,98120.54
2023-06-22T09:25:10.745Z,98114.23
2023-06-22T09:27:38.827Z,98111.71
2023-06-22T09:30:07.717Z,98114.26
2023-06-22T09:32:35.957Z,98114.90
2023-06-22T09:35:09.933Z,98113.93
2023-06-22T09:37:39.262Z,98110.11
2023-06-22T09:40:13.752Z,98113.09
2023-06-22T09:42:42.692Z,98113.86
2023-06-22T09:45:11.093Z,98108.75
2023-06-22T09:47:39.321Z,98107.28
2023-06-22T09:50:07.765Z,98110.21
2023-06-22T09:52:47.930Z,98110.61
2023-06-22T09:55:17.508Z,98113.48
2023-06-22T09:57:46.187Z,98109.95
2023-06-22T10:00:16.095Z,98112.56
2023-06-22T10:02:44.793Z,98115.52
2023-06-22T10:05:13.380Z,98115.84
2023-06-22T10:07:44.483Z,98119.05
2023-06-22T10:10:13.366Z,98115.95
2023-06-22T10:12:46.999Z,98119.42
2023-06-22T10:15:16.006Z,98113.67
2023-06-22T10:17:44.572Z,98113.11
2023-06-22T10:20:13.778Z,98115.20
2023-06-22T10:22:45.979Z,98110.61
2023-06-22T10:25:14.381Z,98108.42
2023-06-22T10:27:42.602Z,98110.48
2023-06-22T10:30:13.835Z,98109.30
2023-06-22T10:32:46.318Z,98104.27
2023-06-22T10:35:17.044Z,98105.12
2023-06-22T10:37:46.373Z,98102.89
2023-06-22T10:40:16.485Z,98099.89
2023-06-22T10:42:44.769Z,98095.71
2023-06-22T10:45:12.830Z,98095.83
2023-06-22T10:47:43.538Z,98099.88
2023-06-22T10:50:12.645Z,98098.13
2023-06-22T10:52:42.713Z,98098.17
2023-06-22T10:55:11.275Z,98092.98
2023-06-22T10:57:42.915Z,98095.21
2023-06-22T11:00:12.690Z,98094.36
2023-06-22T11:02:40.904Z,98088.52
2023-06-22T11:05:09.233Z,98090.79
2023-06-22T11:10:13.328Z,98096.73
2023-06-22T11:12:41.523Z,98097.39
2023-06-22T11:15:10.489Z,98099.16
2023-06-22T11:17:38.629Z,98099.16
2023-06-22T11:20:11.872Z,98103.03
2023-06-22T11:22:41.275Z,98100.84
2023-06-22T11:25:09.753Z,98096.74
2023-06-22T11:27:37.808Z,98096.64
2023-06-22T11:30:06.484Z,98097.14
2023-06-22T11:32:35.435Z,98099.90
2023-06-22T11:35:03.707Z,98099.80
2023-06-22T11:37:31.672Z,98099.45
2023-06-22T11:40:06.800Z,98101.45
2023-06-22T11:42:35.720Z,98099.84
2023-06-22T11:45:06.683Z,98095.99
2023-06-22T11:47:34.841Z,98098.16
2023-06-22T11:50:04.100Z,98098.45
2023-06-22T11:52:32.114Z,98097.16
2023-06-22T11:55:00.592Z,98094.52
2023-06-22T11:57:28.712Z,98094.33
2023-06-22T11:59:56.781Z,98097.11
2023-06-22T12:02:24.999Z,98094.30
2023-06-22T12:04:53.758Z,98097.06
2023-06-22T12:07:21.899Z,98095.48
2023-06-22T12:09:49.863Z,98094.31
2023-06-22T12:12:17.828Z,98091.13
2023-06-22T12:14:45.901Z,98091.33
2023-06-22T12:17:14.038Z,98084.80
2023-06-22T12:19:42.295Z,98082.77
2023-06-22T12:22:10.318Z,98080.36
2023-06-22T12:24:38.303Z,98082.77
2023-06-22T12:27:06.307Z,98078.14
2023-06-22T12:29:34.363Z,98078.88
2023-06-22T12:32:02.328Z,98076.55
2023-06-22T12:34:30.459Z,98073.35
2023-06-22T12:36:58.566Z,98071.48
2023-06-22T12:39:26.588Z,98068.88
2023-06-22T12:41:54.657Z,98063.35
2023-06-22T12:44:22.793Z,98060.48
2023-06-22T12:46:50.898Z,98055.54
2023-06-22T12:49:19.045Z,98048.71
2023-06-22T12:51:47.096Z,98047.95
2023-06-22T12:54:15.094Z,98045.89
2023-06-22T12:56:44.957Z,98042.92
2023-06-22T12:59:13.106Z,98040.27
2023-06-22T13:01:41.189Z,98043.05
2023-06-22T13:04:09.191Z,98041.09
2023-06-22T13:06:37.343Z,98044.49
2023-06-22T13:11:37.225Z,98039.23
2023-06-22T13:14:06.970Z,98037.73
2023-06-22T13:16:35.176Z,98036.69
2023-06-22T13:19:03.608Z,98037.61
2023-06-22T13:21:32.252Z,98035.96
2023-06-22T13:24:00.485Z,98032.21
2023-06-22T13:26:29.847Z,98031.56
2023-06-22T13:28:58.233Z,98027.41
2023-06-22T13:31:26.298Z,98024.41
2023-06-22T13:33:54.401Z,98022.36
2023-06-22T13:36:24.311Z,98020.80
2023-06-22T13:38:52.359Z,98021.13
2023-06-22T13:41:20.390Z,98019.25
2023-06-22T13:43:48.493Z,98017.48
2023-06-22T13:46:16.646Z,98021.30
2023-06-22T13:48:44.610Z,98020.94
2023-06-22T13:51:12.624Z,98022.10
2023-06-22T13:53:40.689Z,98023.00
2023-06-22T13:56:08.645Z,98023.55
2023-06-22T13:58:36.644Z,98026.41
2023-06-22T14:01:04.624Z,98030.86
2023-06-22T14:03:32.618Z,98028.73
2023-06-22T14:06:00.706Z,98036.67
2023-06-22T14:10:59.645Z,98035.83
2023-06-22T14:13:27.633Z,98031.43
2023-06-22T14:15:55.700Z,98029.06
2023-06-22T14:18:23.715Z,98033.57
2023-06-22T14:20:51.850Z,98031.09
2023-06-22T14:23:19.872Z,98027.73
2023-06-22T14:25:48.031Z,98032.05
2023-06-22T14:28:17.589Z,98029.52
2023-06-22T14:30:45.871Z,98024.89
2023-06-22T14:33:14.243Z,98024.70
2023-06-22T14:35:42.253Z,98030.67
2023-06-22T14:38:10.284Z,98031.63
2023-06-22T14:40:53.316Z,98021.03
2023-06-22T14:43:27.267Z,98015.74
2023-06-22T14:45:55.306Z,98022.19
2023-06-22T14:48:23.292Z,98021.82
2023-06-22T14:50:51.321Z,98024.91
2023-06-22T14:53:19.307Z,98024.48
2023-06-22T14:55:47.363Z,98027.74
2023-06-22T14:58:15.517Z,98029.64
2023-06-22T15:00:43.582Z,98029.41
2023-06-22T15:03:18.180Z,98035.64
2023-06-22T15:05:46.920Z,98036.58
2023-06-22T15:08:14.921Z,98032.52
2023-06-22T15:10:42.985Z,98028.23
2023-06-22T15:13:11.046Z,98020.16
2023-06-22T15:15:39.240Z,98015.87
2023-06-22T15:18:07.381Z,98016.38
2023-06-22T15:20:35.428Z,98014.27
2023-06-22T15:23:03.442Z,98011.60
2023-06-22T15:25:31.386Z,98008.36
2023-06-22T15:27:59.443Z,98012.70
2023-06-22T15:30:27.656Z,98017.48
2023-06-22T15:32:56.051Z,98023.86
2023-06-22T15:35:24.277Z,98022.60
2023-06-22T15:37:52.509Z,98023.30
2023-06-22T15:40:20.623Z,98023.61
2023-06-22T15:42:53.469Z,98021.94
2023-06-22T15:45:22.124Z,98017.70
2023-06-22T15:47:50.167Z,98007.70
2023-06-22T15:50:18.332Z,98003.55
2023-06-22T15:52:48.679Z,98004.67
2023-06-22T15:55:19.045Z,98008.65
2023-06-22T15:57:47.989Z,98012.72
2023-06-22T16:00:18.532Z,98013.31
2023-06-22T16:02:48.262Z,98012.16
2023-06-22T16:05:17.106Z,98015.56
2023-06-22T16:07:45.185Z,98024.31
2023-06-22T16:10:16.136Z,98024.39
2023-06-22T16:12:45.630Z,98021.97
2023-06-22T16:15:13.808Z,98028.06
2023-06-22T16:17:42.284Z,98024.53
2023-06-22T16:20:11.454Z,98027.20
2023-06-22T16:22:39.562Z,98028.76
2023-06-22T16:25:07.890Z,98025.45
2023-06-22T16:27:36.021Z,98022.73
2023-06-22T16:30:04.491Z,98020.91
2023-06-22T16:32:32.573Z,98021.03
2023-06-22T16:35:00.713Z,98023.36
2023-06-22T16:37:29.075Z,98021.95
2023-06-22T16:39:57.993Z,98023.63
2023-06-22T16:42:26.128Z,98016.29
2023-06-22T16:44:54.252Z,98014.88
2023-06-22T16:47:22.345Z,98011.35
2023-06-22T16:49:50.713Z,98016.75
2023-06-22T16:52:18.694Z,98018.33
2023-06-22T16:55:00.159Z,98026.17
2023-06-22T16:57:29.561Z,98035.25
2023-06-22T16:59:57.628Z,98039.38
2023-06-22T17:02:26.771Z,98048.55
2023-06-22T17:04:56.601Z,98061.55
2023-06-22T17:07:27.087Z,98071.48
2023-06-22T17:09:56.684Z,98075.30
2023-06-22T17:12:26.016Z,98078.33
2023-06-22T17:14:55.880Z,98078.55
2023-06-22T17:17:26.614Z,98079.52
2023-06-22T17:19:54.944Z,98079.73
2023-06-22T17:22:23.579Z,98078.00
2023-06-22T17:24:52.485Z,98071.66
2023-06-22T17:27:30.708Z,98069.48
2023-06-22T17:30:09.893Z,98066.91
2023-06-22T17:32:38.091Z,98067.57
2023-06-22T17:35:15.560Z,98066.56
2023-06-22T17:38:11.978Z,98062.56
2023-06-22T17:40:41.036Z,98065.23
2023-06-22T17:43:09.404Z,98066.38
2023-06-22T17:45:46.049Z,98066.17
2023-06-22T17:48:15.691Z,98066.73
2023-06-22T17:50:43.838Z,98069.58
2023-06-22T17:53:13.031Z,98067.52
2023-06-22T17:55:41.249Z,98064.80
2023-06-22T17:58:09.522Z,98066.42
2023-06-22T18:00:38.176Z,98065.58
2023-06-22T18:03:06.672Z,98061.96
2023-06-22T18:05:36.712Z,98059.17
2023-06-22T18:08:05.998Z,98058.61
2023-06-22T18:10:36.906Z,98061.77
2023-06-22T18:13:05.645Z,98062.02
2023-06-22T18:15:36.081Z,98069.40
2023-06-22T18:18:06.403Z,98067.42
2023-06-22T18:20:36.299Z,98070.57
2023-06-22T18:23:04.380Z,98071.08
2023-06-22T18:25:34.787Z,98074.30
2023-06-22T18:28:04.347Z,98073.71
2023-06-22T18:30:32.858Z,98073.77
2023-06-22T18:33:01.057Z,98075.15
2023-06-22T18:35:29.686Z,98078.33
2023-06-22T18:37:59.270Z,98085.00
2023-06-22T18:40:27.615Z,98087.70
2023-06-22T18:43:01.215Z,98084.84
2023-06-22T18:45:30.412Z,98089.34
2023-06-22T18:48:02.853Z,98094.98
2023-06-22T18:50:40.547Z,98097.14
2023-06-22T18:53:32.238Z,98098.84
2023-06-22T18:56:15.980Z,98102.48
2023-06-22T18:58:44.071Z,98106.96
2023-06-22T19:01:16.969Z,98110.17
2023-06-22T19:03:49.806Z,98107.83
2023-06-22T19:06:56.509Z,98113.88
2023-06-22T19:09:24.539Z,98119.20
2023-06-22T19:12:12.596Z,98123.42
2023-06-22T19:14:40.801Z,98122.00
2023-06-22T19:17:08.927Z,98123.77
2023-06-22T19:19:39.081Z,98127.08
2023-06-22T19:22:10.214Z,98124.21
2023-06-22T19:25:00.577Z,98119.90
2023-06-22T19:27:30.986Z,98115.46
2023-06-22T19:29:59.124Z,98116.80
2023-06-22T19:32:27.228Z,98121.09
2023-06-22T19:34:55.522Z,98117.19
2023-06-22T19:37:24.873Z,98110.61
2023-06-22T19:42:21.698Z,98108.13
2023-06-22T19:44:49.765Z,98108.56
2023-06-22T19:47:20.959Z,98105.64
2023-06-22T19:49:49.139Z,98108.41
2023-06-22T19:52:17.161Z,98105.77
2023-06-22T19:54:45.160Z,98105.67
2023-06-22T19:57:13.185Z,98109.38
2023-06-22T19:59:41.233Z,98111.86
2023-06-22T20:02:10.243Z,98109.88
2023-06-22T20:04:38.701Z,98107.04
2023-06-22T20:07:07.978Z,98105.66
2023-06-22T20:09:38.396Z,98106.94
2023-06-22T20:12:34.954Z,98100.15
2023-06-22T20:15:19.482Z,98093.52
2023-06-22T20:17:57.135Z,98087.38
2023-06-22T20:20:26.824Z,98084.91
2023-06-22T20:22:58.408Z,98080.00
2023-06-22T20:25:27.333Z,98076.73
2023-06-22T20:27:56.156Z,98073.34
2023-06-22T20:30:30.048Z,98063.77
2023-06-22T20:32:58.376Z,98060.42
2023-06-22T20:35:26.381Z,98064.77
2023-06-22T20:37:56.991Z,98063.05
2023-06-22T20:40:28.938Z,98061.98
2023-06-22T20:43:02.873Z,98057.02
2023-06-22T20:45:32.826Z,98057.00
2023-06-22T20:48:02.404Z,98055.45
2023-06-22T20:50:33.904Z,98054.70
2023-06-22T20:53:03.995Z,98049.67
2023-06-22T20:55:38.391Z,98045.41
2023-06-22T20:58:07.533Z,98045.13
2023-06-22T21:00:36.169Z,98039.14
2023-06-22T21:03:05.439Z,98038.09
2023-06-22T21:05:34.157Z,98043.98
2023-06-22T21:08:02.374Z,98044.08
2023-06-22T21:10:30.389Z,98048.38
2023-06-22T21:12:58.438Z,98046.23
2023-06-22T21:15:26.451Z,98045.11
2023-06-22T21:17:54.536Z,98046.66
2023-06-22T21:20:22.637Z,98051.40
2023-06-22T21:22:50.573Z,98055.83
2023-06-22T21:25:19.115Z,98060.51
2023-06-22T21:27:47.256Z,98063.23
2023-06-22T21:30:16.553Z,98069.30
2023-06-22T21:32:44.817Z,98071.44
2023-06-22T21:35:13.981Z,98071.52
2023-06-22T21:37:42.955Z,98074.14
2023-06-22T21:40:11.386Z,98074.89
2023-06-22T21:42:39.468Z,98076.38
2023-06-22T21:45:07.837Z,98076.16
2023-06-22T21:47:35.939Z,98079.72
2023-06-22T21:50:04.808Z,98082.02
2023-06-22T21:52:32.841Z,98081.29
2023-06-22T21:55:01.992Z,98079.75
2023-06-22T21:57:30.183Z,98081.55
2023-06-22T21:59:58.199Z,98086.88
2023-06-22T22:02:26.954Z,98090.16
2023-06-22T22:04:55.193Z,98087.71
2023-06-22T22:07:23.244Z,98087.05
2023-06-22T22:09:51.298Z,98087.71
2023-06-22T22:12:19.324Z,98086.84
2023-06-22T22:14:47.457Z,98089.30
2023-06-22T22:17:15.587Z,98085.50
2023-06-22T22:19:43.641Z,98089.21
2023-06-22T22:22:12.437Z,98083.59
2023-06-22T22:24:40.470Z,98081.23
2023-06-22T22:27:08.546Z,98078.04
2023-06-22T22:29:36.573Z,98077.98
2023-06-22T22:32:04.741Z,98080.73
2023-06-22T22:34:32.752Z,98075.33
2023-06-22T22:37:00.759Z,98070.81
2023-06-22T22:39:37.775Z,98073.56
2023-06-22T22:42:06.530Z,98069.75
2023-06-22T22:44:36.024Z,98064.70
2023-06-22T22:47:04.208Z,98063.41
2023-06-22T22:49:32.254Z,98067.46
2023-06-22T22:52:00.349Z,98064.60
2023-06-22T22:54:28.455Z,98065.30
2023-06-22T22:56:56.489Z,98064.41
2023-06-22T22:59:24.517Z,98064.76
2023-06-22T23:01:52.665Z,98067.39
2023-06-22T23:04:20.695Z,98062.53
2023-06-22T23:06:48.689Z,98057.89
2023-06-22T23:09:16.857Z,98050.86
2023-06-22T23:11:44.905Z,98049.17
2023-06-22T23:14:12.902Z,98048.23
2023-06-22T23:16:40.924Z,98052.41
2023-06-22T23:19:08.995Z,98046.48
2023-06-22T23:21:37.008Z,98045.19
2023-06-22T23:24:05.567Z,98041.69
2023-06-22T23:26:33.895Z,98040.74
2023-06-22T23:29:01.942Z,98047.19
2023-06-22T23:31:30.039Z,98049.11
2023-06-22T23:33:58.069Z,98055.98
2023-06-22T23:36:26.331Z,98056.58
2023-06-22T23:38:55.464Z,98057.09
2023-06-22T23:41:26.522Z,98056.16
2023-06-22T23:43:54.716Z,98051.90
2023-06-22T23:46:22.870Z,98049.88
2023-06-22T23:48:50.983Z,98045.69
2023-06-22T23:51:19.005Z,98042.59
2023-06-22T23:53:47.243Z,98042.14
2023-06-22T23:56:15.709Z,98043.48
2023-06-22T23:58:43.721Z,98036.14
